ITY340 EBBR-LKPR
Flight info
| Callsign | ITY340 |
|---|---|
| Flight time | N/A |
| Altitude | 35000 |
| Route | SOPOK Y863 OGLOR DCT EMGOD DCT BOMBI DCT BOREP DCT TONSU Z35 ODOMO DCT LOMKI |
| Aircraft | A339/H-SADE1E2E3GHIJ3J5M1P2RWXY/LB2D1 |
Departure
| Time | 2026-05-07 18:26 |
|---|---|
| Airport | Brussels Airport (EBBR) |
Arrival
| Time | N/A |
|---|---|
| Airport | Václav Havel Airport Prague (LKPR) |
| Time | Latitude | Longitude | Altitude | Speed | Heading |
|---|---|---|---|---|---|
| 2026-05-07 17:51 | 50.90075 | 4.48739 | 151 ft | 0 kts | 156° |
| 2026-05-07 18:13 | 50.90076 | 4.48738 | 150 ft | 1 kts | 156° |
| 2026-05-07 18:13 | 50.90080 | 4.48735 | 150 ft | 1 kts | 156° |
| 2026-05-07 18:13 | 50.90085 | 4.48732 | 150 ft | 1 kts | 156° |
| 2026-05-07 18:14 | 50.90089 | 4.48729 | 150 ft | 1 kts | 156° |
| 2026-05-07 18:14 | 50.90093 | 4.48726 | 150 ft | 1 kts | 156° |
| 2026-05-07 18:14 | 50.90102 | 4.48720 | 150 ft | 2 kts | 156° |
| 2026-05-07 18:14 | 50.90114 | 4.48711 | 149 ft | 2 kts | 156° |
| 2026-05-07 18:15 | 50.90127 | 4.48703 | 149 ft | 2 kts | 152° |
| 2026-05-07 18:15 | 50.90139 | 4.48694 | 148 ft | 2 kts | 124° |
| 2026-05-07 18:15 | 50.90145 | 4.48686 | 148 ft | 1 kts | 101° |
| 2026-05-07 18:15 | 50.90147 | 4.48683 | 148 ft | 1 kts | 90° |
| 2026-05-07 18:16 | 50.90150 | 4.48689 | 148 ft | 1 kts | 78° |
| 2026-05-07 18:16 | 50.90150 | 4.48690 | 148 ft | 0 kts | 75° |
| 2026-05-07 18:17 | 50.90150 | 4.48691 | 148 ft | 0 kts | 75° |
| 2026-05-07 18:17 | 50.90152 | 4.48698 | 148 ft | 1 kts | 75° |
| 2026-05-07 18:18 | 50.90153 | 4.48705 | 148 ft | 0 kts | 75° |
| 2026-05-07 18:19 | 50.90154 | 4.48709 | 148 ft | 1 kts | 72° |
| 2026-05-07 18:19 | 50.90156 | 4.48719 | 148 ft | 1 kts | 72° |
| 2026-05-07 18:19 | 50.90161 | 4.48743 | 148 ft | 5 kts | 72° |
| 2026-05-07 18:19 | 50.90179 | 4.48809 | 148 ft | 9 kts | 67° |
| 2026-05-07 18:20 | 50.90207 | 4.48911 | 148 ft | 11 kts | 66° |
| 2026-05-07 18:20 | 50.90241 | 4.49027 | 147 ft | 11 kts | 65° |
| 2026-05-07 18:20 | 50.90275 | 4.49142 | 146 ft | 10 kts | 66° |
| 2026-05-07 18:20 | 50.90300 | 4.49230 | 144 ft | 9 kts | 65° |
| 2026-05-07 18:21 | 50.90330 | 4.49332 | 143 ft | 11 kts | 65° |
| 2026-05-07 18:21 | 50.90362 | 4.49442 | 142 ft | 11 kts | 65° |
| 2026-05-07 18:21 | 50.90395 | 4.49543 | 141 ft | 10 kts | 55° |
| 2026-05-07 18:21 | 50.90454 | 4.49590 | 141 ft | 9 kts | 19° |
| 2026-05-07 18:22 | 50.90518 | 4.49619 | 141 ft | 10 kts | 15° |
| 2026-05-07 18:22 | 50.90565 | 4.49639 | 140 ft | 12 kts | 14° |
| 2026-05-07 18:22 | 50.90659 | 4.49677 | 138 ft | 10 kts | 14° |
| 2026-05-07 18:22 | 50.90729 | 4.49704 | 139 ft | 10 kts | 14° |
| 2026-05-07 18:23 | 50.90799 | 4.49733 | 137 ft | 12 kts | 14° |
| 2026-05-07 18:23 | 50.90876 | 4.49763 | 125 ft | 12 kts | 14° |
| 2026-05-07 18:23 | 50.90945 | 4.49818 | 126 ft | 9 kts | 38° |
| 2026-05-07 18:23 | 50.90947 | 4.49820 | 126 ft | 0 kts | 38° |
| 2026-05-07 18:24 | 50.90948 | 4.49821 | 126 ft | 0 kts | 38° |
| 2026-05-07 18:24 | 50.90953 | 4.49827 | 126 ft | 3 kts | 38° |
| 2026-05-07 18:24 | 50.90986 | 4.49867 | 125 ft | 9 kts | 36° |
| 2026-05-07 18:24 | 50.91048 | 4.49919 | 125 ft | 12 kts | 25° |
| 2026-05-07 18:25 | 50.91122 | 4.49898 | 125 ft | 9 kts | 304° |
| 2026-05-07 18:25 | 50.91116 | 4.49802 | 129 ft | 9 kts | 251° |
| 2026-05-07 18:25 | 50.91105 | 4.49766 | 127 ft | 0 kts | 247° |
| 2026-05-07 18:25 | 50.91088 | 4.49703 | 130 ft | 30 kts | 246° |
| 2026-05-07 18:26 | 50.90881 | 4.48988 | 141 ft | 111 kts | 245° |
| 2026-05-07 18:26 | 50.90474 | 4.47551 | 155 ft | 175 kts | 246° |
| 2026-05-07 18:26 | 50.89950 | 4.45645 | 540 ft | 194 kts | 249° |
| 2026-05-07 18:26 | 50.89473 | 4.43623 | 1066 ft | 200 kts | 251° |
| 2026-05-07 18:27 | 50.88725 | 4.41694 | 1373 ft | 212 kts | 222° |
| 2026-05-07 18:27 | 50.87443 | 4.40641 | 1688 ft | 213 kts | 190° |
| 2026-05-07 18:27 | 50.85959 | 4.40841 | 2076 ft | 221 kts | 156° |
| 2026-05-07 18:27 | 50.85083 | 4.41721 | 2526 ft | 223 kts | 135° |
| 2026-05-07 18:28 | 50.83959 | 4.44545 | 3178 ft | 236 kts | 114° |
| 2026-05-07 18:28 | 50.83258 | 4.46889 | 3629 ft | 237 kts | 116° |
| 2026-05-07 18:28 | 50.82478 | 4.49060 | 4071 ft | 239 kts | 121° |
| 2026-05-07 18:28 | 50.81506 | 4.51307 | 4561 ft | 244 kts | 125° |
| 2026-05-07 18:29 | 50.80667 | 4.53053 | 4957 ft | 251 kts | 127° |
| 2026-05-07 18:29 | 50.79567 | 4.55232 | 5409 ft | 254 kts | 128° |
| 2026-05-07 18:29 | 50.78451 | 4.57405 | 5874 ft | 256 kts | 129° |
| 2026-05-07 18:29 | 50.77323 | 4.59603 | 6350 ft | 258 kts | 129° |
| 2026-05-07 18:30 | 50.76190 | 4.61816 | 6787 ft | 261 kts | 129° |
| 2026-05-07 18:30 | 50.75046 | 4.64057 | 6955 ft | 262 kts | 129° |
| 2026-05-07 18:30 | 50.73883 | 4.66275 | 7002 ft | 262 kts | 131° |
| 2026-05-07 18:30 | 50.72690 | 4.68405 | 6999 ft | 263 kts | 132° |
| 2026-05-07 18:31 | 50.71439 | 4.70598 | 6999 ft | 275 kts | 132° |
| 2026-05-07 18:31 | 50.70171 | 4.72855 | 6998 ft | 274 kts | 129° |
| 2026-05-07 18:31 | 50.69150 | 4.75391 | 6999 ft | 275 kts | 115° |
| 2026-05-07 18:31 | 50.68519 | 4.78234 | 7001 ft | 276 kts | 106° |
| 2026-05-07 18:32 | 50.67988 | 4.81141 | 7001 ft | 276 kts | 107° |
| 2026-05-07 18:32 | 50.67437 | 4.84043 | 7002 ft | 276 kts | 107° |
| 2026-05-07 18:32 | 50.66877 | 4.86923 | 7042 ft | 275 kts | 108° |
| 2026-05-07 18:32 | 50.66516 | 4.88758 | 7206 ft | 275 kts | 108° |
| 2026-05-07 18:33 | 50.65733 | 4.92713 | 7755 ft | 279 kts | 108° |
| 2026-05-07 18:33 | 50.65159 | 4.95609 | 8167 ft | 282 kts | 108° |
| 2026-05-07 18:33 | 50.64573 | 4.98564 | 8577 ft | 284 kts | 108° |
| 2026-05-07 18:33 | 50.64066 | 5.01578 | 8999 ft | 287 kts | 103° |
| 2026-05-07 18:34 | 50.63665 | 5.04675 | 9423 ft | 289 kts | 101° |
| 2026-05-07 18:34 | 50.63286 | 5.07785 | 9850 ft | 292 kts | 101° |
| 2026-05-07 18:34 | 50.62895 | 5.10895 | 10247 ft | 294 kts | 102° |
| 2026-05-07 18:34 | 50.62473 | 5.14101 | 10641 ft | 296 kts | 102° |
| 2026-05-07 18:35 | 50.62042 | 5.17282 | 11035 ft | 298 kts | 103° |
| 2026-05-07 18:35 | 50.61602 | 5.20483 | 11433 ft | 301 kts | 103° |
| 2026-05-07 18:35 | 50.61150 | 5.23742 | 11847 ft | 310 kts | 103° |
| 2026-05-07 18:35 | 50.60682 | 5.27107 | 12255 ft | 318 kts | 103° |
| 2026-05-07 18:36 | 50.60201 | 5.30555 | 12680 ft | 327 kts | 103° |
| 2026-05-07 18:36 | 50.59714 | 5.34035 | 13105 ft | 332 kts | 103° |
| 2026-05-07 18:36 | 50.59217 | 5.37587 | 13532 ft | 334 kts | 103° |
| 2026-05-07 18:36 | 50.58714 | 5.41173 | 13952 ft | 337 kts | 103° |
| 2026-05-07 18:37 | 50.58207 | 5.44781 | 14343 ft | 339 kts | 103° |
| 2026-05-07 18:37 | 50.57690 | 5.48440 | 14731 ft | 346 kts | 103° |
| 2026-05-07 18:37 | 50.57162 | 5.52170 | 15127 ft | 352 kts | 103° |
| 2026-05-07 18:37 | 50.56626 | 5.55952 | 15529 ft | 359 kts | 103° |
| 2026-05-07 18:38 | 50.56077 | 5.59817 | 15927 ft | 364 kts | 103° |
| 2026-05-07 18:38 | 50.55519 | 5.63733 | 16296 ft | 371 kts | 103° |
| 2026-05-07 18:38 | 50.54966 | 5.67609 | 16601 ft | 378 kts | 103° |
| 2026-05-07 18:38 | 50.54372 | 5.71762 | 16918 ft | 386 kts | 103° |
| 2026-05-07 18:39 | 50.53776 | 5.75913 | 17244 ft | 393 kts | 103° |
| 2026-05-07 18:39 | 50.53169 | 5.80132 | 17557 ft | 399 kts | 103° |
| 2026-05-07 18:39 | 50.52548 | 5.84428 | 17880 ft | 406 kts | 103° |
| 2026-05-07 18:39 | 50.51918 | 5.88782 | 18215 ft | 411 kts | 103° |
| 2026-05-07 18:40 | 50.51283 | 5.93164 | 18512 ft | 413 kts | 103° |
| 2026-05-07 18:40 | 50.50675 | 5.97347 | 18783 ft | 417 kts | 103° |
| 2026-05-07 18:40 | 50.50456 | 5.98848 | 18890 ft | 419 kts | 103° |